Bacliff, Texas
Current Conditions -  °F | °C
As of 1:50 PM on Friday 19 Dec 2014 (Local Time) from KEFD Reporting Station
Light Rain Light Rain  
Wind Chill: 12°   Ceiling: 500
Heat Index: 12°   Visibility: 4mi
Dew Point: 11°   Wind: 15mph
Humidity: 94%   Direction: 10°N
Pressure: 30.01"   Gusts: NA
Location:  29.51°N, 94.99°W
Report Text: KEFD 191950Z 01013KT 4SM -RA BKN005 OVC012 12/11 A3001
Loading
Personal Weather Stations






























Interactive Weather Map New forecast layout! Learn more

10-Day Weather Forecast

Advertisements
Track Severe Weather on mobile